createdAt,value
2019-05-10T00:02:19.955Z,20.43
2019-05-10T00:05:19.590Z,19.10
2019-05-10T00:08:20.224Z,18.53
2019-05-10T00:11:34.163Z,17.33
2019-05-10T00:14:27.246Z,24.13
2019-05-10T00:17:18.451Z,17.80
2019-05-10T00:20:01.153Z,21.93
2019-05-10T00:22:43.778Z,23.17
2019-05-10T00:25:26.720Z,23.33
2019-05-10T00:28:09.490Z,20.73
2019-05-10T00:30:52.402Z,22.47
2019-05-10T00:33:35.000Z,16.10
2019-05-10T00:36:17.780Z,22.20
2019-05-10T00:39:00.446Z,17.10
2019-05-10T00:41:43.672Z,25.23
2019-05-10T00:44:26.397Z,18.27
2019-05-10T00:47:09.164Z,19.97
2019-05-10T00:49:51.721Z,15.07
2019-05-10T00:57:56.537Z,18.83
2019-05-10T01:00:39.440Z,20.53
2019-05-10T01:03:22.212Z,14.53
2019-05-10T01:06:04.952Z,17.93
2019-05-10T01:08:47.781Z,15.53
2019-05-10T01:11:30.732Z,17.87
2019-05-10T01:14:13.757Z,18.37
2019-05-10T01:16:56.600Z,28.13
2019-05-10T01:19:39.681Z,19.60
2019-05-10T01:22:22.348Z,19.53
2019-05-10T01:25:05.161Z,17.87
2019-05-10T01:27:47.866Z,19.43
2019-05-10T08:12:35.269Z,16.03
2019-05-10T08:15:19.521Z,12.93
2019-05-10T08:18:01.282Z,15.63
2019-05-10T08:20:50.382Z,15.37
2019-05-10T08:23:28.146Z,20.10
2019-05-10T08:26:16.154Z,17.43
2019-05-10T08:28:55.485Z,17.17
2019-05-10T08:31:40.666Z,13.60
2019-05-10T08:37:02.711Z,15.07
2019-05-10T08:39:49.085Z,19.80
2019-05-10T08:42:40.947Z,18.33
2019-05-10T08:45:13.767Z,14.20
2019-05-10T08:48:00.712Z,16.77
2019-05-10T08:50:52.763Z,15.23
2019-05-10T08:53:25.946Z,21.77
2019-05-10T08:56:13.887Z,16.47
2019-05-10T08:58:53.649Z,15.87
2019-05-10T09:01:44.268Z,15.60
2019-05-10T09:04:22.254Z,15.30
2019-05-10T09:07:04.580Z,15.93
2019-05-10T09:09:50.090Z,14.70
2019-05-10T09:12:32.936Z,16.90
2019-05-10T09:15:16.031Z,13.30
2019-05-10T09:18:03.303Z,12.80
2019-05-10T09:20:42.765Z,19.97
2019-05-10T09:23:25.395Z,18.17
2019-05-10T09:26:11.764Z,14.30
2019-05-10T09:28:53.406Z,14.37
2019-05-10T09:31:39.349Z,14.63
2019-05-10T09:34:23.634Z,12.50
2019-05-10T09:37:08.119Z,14.37
2019-05-10T09:39:54.949Z,15.10
2019-05-10T09:42:39.770Z,17.87
2019-05-10T09:45:16.810Z,17.33
2019-05-10T09:47:59.420Z,17.70
2019-05-10T09:50:46.785Z,18.27
2019-05-10T09:53:29.429Z,14.03
2019-05-10T09:56:10.605Z,14.43
2019-05-10T09:58:53.435Z,13.43
2019-05-10T10:01:37.068Z,12.93
2019-05-10T10:04:20.431Z,12.23
2019-05-10T10:07:03.336Z,12.23
2019-05-10T10:12:28.910Z,11.47
2019-05-10T10:15:18.723Z,12.57
2019-05-10T10:17:58.139Z,15.47
2019-05-10T10:20:43.707Z,12.77
2019-05-10T10:23:29.525Z,18.83
2019-05-10T10:26:12.656Z,16.23
2019-05-10T10:28:55.280Z,16.70
2019-05-10T10:31:50.096Z,12.87
2019-05-10T10:37:02.831Z,14.30
2019-05-10T10:39:47.542Z,13.47
2019-05-10T10:45:10.665Z,28.20
2019-05-10T10:49:17.292Z,20.17
2019-05-10T10:51:59.066Z,14.60
2019-05-10T10:54:41.723Z,18.80
2019-05-10T11:00:41.563Z,18.17
2019-05-10T11:03:30.176Z,16.63
2019-05-10T11:06:07.330Z,17.63
2019-05-10T11:08:51.835Z,19.40
2019-05-10T11:14:14.926Z,17.27
2019-05-10T11:16:58.205Z,21.07
2019-05-10T11:19:41.711Z,26.13
2019-05-10T11:22:27.235Z,26.00
2019-05-10T11:25:10.423Z,18.63
2019-05-10T11:27:58.184Z,20.73
2019-05-10T11:30:36.756Z,39.97
2019-05-10T11:33:27.283Z,27.63
2019-05-10T11:38:47.129Z,42.33
2019-05-10T11:41:28.472Z,20.07
2019-05-10T11:44:12.065Z,31.67
2019-05-10T11:46:54.869Z,34.87
2019-05-10T11:49:37.453Z,36.00
2019-05-10T11:52:21.718Z,25.90
2019-05-10T11:55:04.655Z,26.67
2019-05-10T11:57:56.591Z,29.50
2019-05-10T12:00:34.214Z,24.43
2019-05-10T12:03:19.043Z,21.73
2019-05-10T12:06:06.081Z,19.80
2019-05-10T12:08:44.617Z,18.50
2019-05-10T12:11:33.340Z,20.83
2019-05-10T12:14:13.810Z,19.83
2019-05-10T12:16:56.363Z,19.73
2019-05-10T12:19:47.707Z,19.60
2019-05-10T12:22:32.204Z,18.90
2019-05-10T12:25:34.852Z,20.63
2019-05-10T12:30:35.162Z,23.50
2019-05-10T12:33:24.178Z,25.93
2019-05-10T12:36:01.493Z,33.07
2019-05-10T12:38:44.232Z,30.57
2019-05-10T12:41:26.988Z,19.13
2019-05-10T12:44:11.245Z,17.63
2019-05-10T12:52:16.252Z,13.27
2019-05-10T12:54:58.961Z,16.60
2019-05-10T12:57:43.313Z,20.27
2019-05-10T13:00:26.263Z,15.23
2019-05-10T13:03:12.741Z,21.40
2019-05-10T13:05:53.791Z,20.03
2019-05-10T13:08:36.869Z,21.13
2019-05-10T13:11:25.332Z,16.80
2019-05-10T13:14:07.284Z,15.10
2019-05-10T13:16:48.109Z,12.47
2019-05-10T13:19:31.340Z,9.63
2019-05-10T13:22:14.061Z,16.73
2019-05-10T13:24:56.741Z,9.90
2019-05-10T13:27:39.578Z,10.07
2019-05-10T13:33:03.768Z,8.03
2019-05-10T13:35:50.861Z,8.23
2019-05-10T13:38:30.721Z,12.95
2019-05-10T13:41:17.854Z,9.45
2019-05-10T13:43:58.872Z,12.23
2019-05-10T13:46:41.602Z,10.30
2019-05-10T13:52:05.683Z,14.28
2019-05-10T13:54:48.587Z,14.85
2019-05-10T13:57:31.912Z,10.18
2019-05-10T14:00:14.897Z,11.38
2019-05-10T14:08:19.074Z,11.78
2019-05-10T14:11:03.189Z,15.38
2019-05-10T14:13:43.497Z,11.60
2019-05-10T14:16:24.016Z,16.90
2019-05-10T14:19:04.418Z,11.10
2019-05-10T14:21:42.772Z,13.50
2019-05-10T14:24:26.866Z,9.20
2019-05-10T14:27:09.546Z,13.70
2019-05-10T14:29:52.920Z,10.32
2019-05-10T14:32:35.793Z,12.63
2019-05-10T14:35:22.624Z,15.75
2019-05-10T14:38:08.718Z,12.25
2019-05-10T14:40:48.671Z,10.98
2019-05-10T14:43:31.236Z,12.82
2019-05-10T14:46:14.175Z,11.40
2019-05-10T14:48:56.899Z,23.62
2019-05-10T14:51:56.596Z,20.88
2019-05-10T14:54:24.225Z,12.07
2019-05-10T14:57:07.999Z,12.73
2019-05-10T14:59:50.731Z,16.10
2019-05-10T15:02:33.358Z,16.10
2019-05-10T15:05:18.004Z,18.48
2019-05-10T15:10:41.801Z,21.23
2019-05-10T15:13:25.907Z,12.82
2019-05-10T15:16:12.879Z,13.38
2019-05-10T15:18:53.052Z,10.40
2019-05-10T15:21:36.869Z,13.68
2019-05-10T15:24:17.675Z,12.47
2019-05-10T15:27:00.425Z,10.00
2019-05-10T15:29:43.385Z,10.25
2019-05-10T15:32:26.148Z,14.20
2019-05-10T15:35:09.214Z,15.40
2019-05-10T15:40:32.732Z,14.45
2019-05-10T15:43:17.281Z,10.10
2019-05-10T15:45:59.900Z,17.02
2019-05-10T15:48:43.358Z,8.00
2019-05-10T15:51:35.637Z,14.03
2019-05-10T15:54:10.520Z,12.05
2019-05-10T15:56:55.384Z,11.38
2019-05-10T15:59:37.171Z,10.80
2019-05-10T16:02:18.939Z,11.38
2019-05-10T16:05:01.793Z,9.03
2019-05-10T16:07:46.429Z,7.50
2019-05-10T16:10:38.719Z,8.13
2019-05-10T16:15:57.665Z,9.45
2019-05-10T16:18:39.755Z,8.25
2019-05-10T16:21:21.967Z,5.78
2019-05-10T16:24:04.601Z,13.78
2019-05-10T16:26:47.458Z,9.95
2019-05-10T16:29:33.875Z,8.68
2019-05-10T16:32:16.528Z,5.05
2019-05-10T16:34:59.253Z,6.95
2019-05-10T16:37:42.404Z,4.25
2019-05-10T16:40:26.186Z,3.75
2019-05-10T16:43:14.032Z,5.80
2019-05-10T16:45:53.158Z,4.87
2019-05-10T16:48:35.897Z,7.58
2019-05-10T16:51:18.738Z,5.40
2019-05-10T16:54:01.339Z,8.10
2019-05-10T16:56:43.767Z,6.17
2019-05-10T16:59:29.837Z,6.80
2019-05-10T17:02:11.980Z,4.03
2019-05-10T17:04:54.829Z,3.00
2019-05-10T17:07:37.767Z,3.40
2019-05-10T17:10:17.299Z,9.83
2019-05-10T17:13:05.075Z,6.72
2019-05-10T17:18:25.126Z,5.35
2019-05-10T17:21:07.769Z,5.08
2019-05-10T17:23:51.558Z,5.15
2019-05-10T17:26:34.117Z,2.05
2019-05-10T17:29:16.800Z,2.25
2019-05-10T17:31:59.426Z,3.77
2019-05-10T17:34:42.404Z,1.30
2019-05-10T17:37:29.809Z,3.80
2019-05-10T17:40:10.641Z,2.83
2019-05-10T17:42:53.191Z,4.12
2019-05-10T17:45:39.896Z,7.28
2019-05-10T17:48:19.264Z,5.95
2019-05-10T17:51:01.991Z,2.50
2019-05-10T17:53:44.935Z,4.20
2019-05-10T17:56:27.579Z,3.60
2019-05-10T17:59:11.992Z,1.47
2019-05-10T18:01:54.392Z,1.92
2019-05-10T18:04:37.318Z,3.12
2019-05-10T18:07:20.166Z,6.62
2019-05-10T18:10:02.917Z,6.58
2019-05-10T18:12:45.824Z,3.00
2019-05-10T18:15:32.878Z,2.90
2019-05-10T18:18:12.897Z,2.65
2019-05-10T18:20:55.889Z,3.30
2019-05-10T18:23:38.597Z,3.20
2019-05-10T18:26:21.307Z,2.75
2019-05-10T18:29:04.015Z,4.15
2019-05-10T18:31:54.732Z,4.22
2019-05-10T18:34:33.400Z,4.35
2019-05-10T18:37:15.990Z,3.85
2019-05-10T18:39:59.360Z,3.00
2019-05-10T18:42:42.122Z,3.65
2019-05-10T18:45:28.738Z,2.02
2019-05-10T18:48:09.729Z,10.55
2019-05-10T18:50:52.515Z,1.70
2019-05-10T18:53:35.249Z,4.37
2019-05-10T18:56:18.850Z,6.12
2019-05-10T18:59:06.483Z,3.95
2019-05-10T19:01:45.788Z,6.37
2019-05-10T19:04:28.555Z,5.75
2019-05-10T19:07:12.199Z,5.10
2019-05-10T19:09:54.945Z,6.50
2019-05-10T19:12:37.981Z,3.05
2019-05-10T19:15:21.121Z,8.50
2019-05-10T19:18:04.947Z,5.85
2019-05-10T19:20:48.737Z,4.10
2019-05-10T19:23:31.709Z,2.25
2019-05-10T19:26:17.393Z,3.58
2019-05-10T19:29:04.232Z,7.00
2019-05-10T19:31:43.117Z,1.85
2019-05-10T19:34:25.762Z,1.72
2019-05-10T19:37:08.503Z,2.98
2019-05-10T19:39:51.219Z,2.52
2019-05-10T19:42:37.316Z,1.60
2019-05-10T19:47:59.866Z,2.77
2019-05-10T19:50:42.455Z,4.58
2019-05-10T19:53:25.270Z,1.47
2019-05-10T19:56:07.982Z,2.05
2019-05-10T19:58:49.614Z,5.75
2019-05-10T20:01:31.103Z,2.45
2019-05-10T20:04:14.168Z,1.67
2019-05-10T20:06:56.778Z,7.85
2019-05-10T20:09:39.658Z,6.65
2019-05-10T20:12:22.109Z,5.00
